createdAt,value
2024-01-05T00:00:14.932Z,9.50
2024-01-05T00:03:02.194Z,9.32
2024-01-05T00:05:29.789Z,9.35
2024-01-05T00:07:57.963Z,10.15
2024-01-05T00:10:25.470Z,9.38
2024-01-05T00:12:52.677Z,9.93
2024-01-05T00:15:20.253Z,9.95
2024-01-05T00:17:48.470Z,8.82
2024-01-05T00:20:17.492Z,9.57
2024-01-05T00:22:44.473Z,9.60
2024-01-05T00:25:11.732Z,11.07
2024-01-05T00:27:38.828Z,9.05
2024-01-05T00:30:06.601Z,8.85
2024-01-05T00:32:33.751Z,8.07
2024-01-05T00:35:01.058Z,8.77
2024-01-05T00:37:28.054Z,10.35
2024-01-05T00:39:55.341Z,8.43
2024-01-05T00:42:22.327Z,10.02
2024-01-05T00:44:49.576Z,10.77
2024-01-05T00:47:16.637Z,9.90
2024-01-05T00:49:44.042Z,10.55
2024-01-05T00:52:11.039Z,10.32
2024-01-05T00:54:38.399Z,10.63
2024-01-05T00:57:05.955Z,9.13
2024-01-05T00:59:34.220Z,9.75
2024-01-05T01:02:01.230Z,9.50
2024-01-05T01:04:29.171Z,9.93
2024-01-05T01:06:56.134Z,8.45
2024-01-05T01:09:23.499Z,8.38
2024-01-05T01:11:51.671Z,9.70
2024-01-05T01:14:19.450Z,9.10
2024-01-05T01:16:46.367Z,10.50
2024-01-05T01:19:13.832Z,7.93
2024-01-05T01:21:41.142Z,8.10
2024-01-05T01:24:08.561Z,8.15
2024-01-05T01:26:35.747Z,7.47
2024-01-05T01:29:03.054Z,9.02
2024-01-05T01:31:32.772Z,9.45
2024-01-05T01:34:00.159Z,9.55
2024-01-05T01:36:28.651Z,9.43
2024-01-05T01:38:56.046Z,9.00
2024-01-05T01:41:23.487Z,8.38
2024-01-05T01:43:53.369Z,8.95
2024-01-05T01:46:21.289Z,9.82
2024-01-05T01:48:49.083Z,9.45
2024-01-05T01:51:16.255Z,9.20
2024-01-05T01:53:44.133Z,9.23
2024-01-05T01:56:12.780Z,8.57
2024-01-05T01:58:40.276Z,8.38
2024-01-05T02:01:07.699Z,9.15
2024-01-05T02:03:35.773Z,8.90
2024-01-05T02:06:03.039Z,9.48
2024-01-05T02:08:30.622Z,9.57
2024-01-05T02:10:57.715Z,9.20
2024-01-05T02:13:25.026Z,8.93
2024-01-05T02:15:52.286Z,8.93
2024-01-05T02:18:20.069Z,8.27
2024-01-05T02:20:48.312Z,7.95
2024-01-05T02:23:21.994Z,8.65
2024-01-05T02:25:49.165Z,10.02
2024-01-05T02:28:16.677Z,9.63
2024-01-05T02:30:43.809Z,8.40
2024-01-05T02:33:11.229Z,8.15
2024-01-05T02:35:38.257Z,7.80
2024-01-05T02:38:06.386Z,9.98
2024-01-05T02:40:33.532Z,12.00
2024-01-05T02:43:00.882Z,13.23
2024-01-05T02:45:28.038Z,10.20
2024-01-05T02:47:55.416Z,10.25
2024-01-05T02:50:22.587Z,10.55
2024-01-05T02:52:49.861Z,9.52
2024-01-05T02:55:16.873Z,9.18
2024-01-05T02:57:44.152Z,8.48
2024-01-05T03:00:11.505Z,9.93
2024-01-05T03:02:38.854Z,14.73
2024-01-05T03:05:07.013Z,16.30
2024-01-05T03:07:34.430Z,16.13
2024-01-05T03:10:01.370Z,13.18
2024-01-05T03:12:28.983Z,13.80
2024-01-05T03:14:56.322Z,12.95
2024-01-05T03:17:23.596Z,11.70
2024-01-05T03:19:50.564Z,12.35
2024-01-05T03:22:18.019Z,15.40
2024-01-05T03:24:45.300Z,12.55
2024-01-05T03:27:14.546Z,12.32
2024-01-05T03:29:41.989Z,14.90
2024-01-05T03:32:10.442Z,11.77
2024-01-05T03:34:38.480Z,11.82
2024-01-05T03:37:05.940Z,10.85
2024-01-05T03:39:33.007Z,16.52
2024-01-05T03:42:00.475Z,12.35
2024-01-05T03:44:27.565Z,14.25
2024-01-05T03:46:54.753Z,15.27
2024-01-05T03:49:21.886Z,12.43
2024-01-05T03:51:50.804Z,12.07
2024-01-05T03:54:18.116Z,11.38
2024-01-05T03:56:49.817Z,11.18
2024-01-05T03:59:23.540Z,9.65
2024-01-05T04:04:34.274Z,8.20
2024-01-05T04:07:04.303Z,12.23
2024-01-05T04:09:33.632Z,14.80
2024-01-05T04:12:04.332Z,21.65
2024-01-05T04:14:35.404Z,18.00
2024-01-05T04:17:05.689Z,14.02
2024-01-05T04:22:00.959Z,15.05
2024-01-05T04:24:28.809Z,17.48
2024-01-05T04:26:56.109Z,18.65
2024-01-05T04:29:23.096Z,11.25
2024-01-05T04:31:50.856Z,13.57
2024-01-05T04:34:17.902Z,13.07
2024-01-05T04:36:45.927Z,13.93
2024-01-05T04:39:13.869Z,13.65
2024-01-05T04:41:41.497Z,15.00
2024-01-05T04:44:08.903Z,15.48
2024-01-05T04:46:36.858Z,15.77
2024-01-05T04:49:03.770Z,14.35
2024-01-05T04:54:05.087Z,14.50
2024-01-05T04:56:35.928Z,14.07
2024-01-05T04:59:02.932Z,14.75
2024-01-05T05:16:19.450Z,12.55
2024-01-05T05:19:04.596Z,14.82
2024-01-05T05:22:02.452Z,15.75
2024-01-05T05:33:27.047Z,12.65
2024-01-05T05:38:39.170Z,15.35
2024-01-05T05:41:09.290Z,17.48
2024-01-05T05:43:36.263Z,27.10
2024-01-05T05:46:03.683Z,21.63
2024-01-05T05:48:31.009Z,16.20
2024-01-05T05:50:58.779Z,13.23
2024-01-05T05:53:28.925Z,13.88
2024-01-05T05:55:56.479Z,12.95
2024-01-05T05:58:24.689Z,19.17
2024-01-05T06:00:52.456Z,21.42
2024-01-05T06:03:19.824Z,21.27
2024-01-05T06:05:47.675Z,19.45
2024-01-05T06:08:14.943Z,19.88
2024-01-05T06:10:42.313Z,26.08
2024-01-05T06:13:10.378Z,30.13
2024-01-05T06:15:37.846Z,24.48
2024-01-05T06:18:05.362Z,51.83
2024-01-05T06:20:32.818Z,26.20
2024-01-05T06:22:59.809Z,32.28
2024-01-05T06:25:27.399Z,19.75
2024-01-05T06:27:54.606Z,30.05
2024-01-05T06:30:24.576Z,19.98
2024-01-05T06:32:51.955Z,13.65
2024-01-05T06:35:19.752Z,15.63
2024-01-05T06:37:47.377Z,15.07
2024-01-05T06:40:16.324Z,11.43
2024-01-05T06:42:43.411Z,12.65
2024-01-05T06:45:13.173Z,11.65
2024-01-05T06:47:40.388Z,11.30
2024-01-05T06:50:09.077Z,10.75
2024-01-05T06:52:36.759Z,8.38
2024-01-05T06:55:04.691Z,8.80
2024-01-05T06:57:33.558Z,10.32
2024-01-05T07:00:01.183Z,10.25
2024-01-05T07:02:30.026Z,9.15
2024-01-05T07:04:57.439Z,8.13
2024-01-05T07:07:24.485Z,7.43
2024-01-05T07:09:52.038Z,7.53
2024-01-05T07:12:19.824Z,7.38
2024-01-05T07:14:50.349Z,7.03
2024-01-05T07:17:17.728Z,6.47
2024-01-05T07:19:45.096Z,6.15
2024-01-05T07:22:13.101Z,5.50
2024-01-05T07:24:42.381Z,6.22
2024-01-05T07:27:11.879Z,5.78
2024-01-05T07:32:09.448Z,4.63
2024-01-05T07:34:37.223Z,4.35
2024-01-05T07:37:05.009Z,5.85
2024-01-05T07:39:36.779Z,3.92
2024-01-05T07:42:08.126Z,6.75
2024-01-05T07:44:36.265Z,5.88
2024-01-05T07:47:03.461Z,6.78
2024-01-05T07:49:31.300Z,5.25
2024-01-05T07:51:58.549Z,5.10
2024-01-05T07:54:26.076Z,5.28
2024-01-05T07:56:53.108Z,5.53
2024-01-05T07:59:21.053Z,6.50
2024-01-05T08:01:52.472Z,5.20
2024-01-05T08:04:24.266Z,6.07
2024-01-05T08:06:53.961Z,4.43
2024-01-05T08:09:22.176Z,4.85
2024-01-05T08:11:49.264Z,4.63
2024-01-05T08:14:18.509Z,4.15
2024-01-05T08:16:45.675Z,3.38
2024-01-05T08:19:14.631Z,3.97
2024-01-05T08:21:43.623Z,4.05
2024-01-05T08:24:12.213Z,4.20
2024-01-05T08:26:40.733Z,3.38
2024-01-05T08:29:08.393Z,3.80
2024-01-05T08:31:37.832Z,3.03
2024-01-05T08:34:05.736Z,2.55
2024-01-05T08:36:33.042Z,2.90
2024-01-05T08:39:00.625Z,2.88
2024-01-05T08:41:33.409Z,3.20
2024-01-05T08:44:03.621Z,2.80
2024-01-05T08:46:31.090Z,3.47
2024-01-05T08:48:59.148Z,3.60
2024-01-05T08:51:26.550Z,3.05
2024-01-05T08:53:57.274Z,3.63
2024-01-05T08:56:25.461Z,4.38
2024-01-05T08:58:53.061Z,2.95
2024-01-05T09:01:22.342Z,5.18
2024-01-05T09:10:22.377Z,2.50
2024-01-05T09:13:14.383Z,1.88
2024-01-05T10:11:14.208Z,1.63
2024-01-05T10:18:02.427Z,1.00
2024-01-05T10:35:26.890Z,1.55
2024-01-05T10:56:09.953Z,1.75
2024-01-05T11:02:41.001Z,1.98
2024-01-05T11:05:15.053Z,1.60
2024-01-05T11:07:43.511Z,1.75
2024-01-05T11:25:34.593Z,1.58
2024-01-05T11:32:42.683Z,2.72
2024-01-05T11:56:03.340Z,2.03
2024-01-05T12:02:45.715Z,2.38
2024-01-05T12:20:10.333Z,1.70
2024-01-05T12:23:39.265Z,2.05
2024-01-05T13:02:10.530Z,2.00
2024-01-05T13:04:41.975Z,1.70
2024-01-05T13:07:15.566Z,2.50
2024-01-05T13:15:38.451Z,1.83
2024-01-05T13:18:07.831Z,2.95
2024-01-05T13:20:35.653Z,2.00
2024-01-05T13:23:05.482Z,1.73
2024-01-05T13:25:33.002Z,2.35
2024-01-05T13:28:00.102Z,2.97
2024-01-05T13:30:47.716Z,3.13
2024-01-05T13:33:27.023Z,2.65
2024-01-05T13:38:45.877Z,2.42
2024-01-05T13:41:14.598Z,2.35
2024-01-05T13:43:43.581Z,2.03
2024-01-05T13:46:10.619Z,2.17
2024-01-05T13:48:38.365Z,2.47
2024-01-05T13:51:06.369Z,2.42
2024-01-05T13:53:35.551Z,1.85
2024-01-05T13:56:03.772Z,2.03
2024-01-05T13:58:49.188Z,2.03
2024-01-05T14:01:18.118Z,1.95
2024-01-05T14:03:47.509Z,2.05
2024-01-05T14:06:15.367Z,2.10
2024-01-05T14:08:43.010Z,2.70
2024-01-05T14:14:00.833Z,3.85
2024-01-05T14:16:28.123Z,2.33
2024-01-05T14:18:56.361Z,2.65
2024-01-05T14:21:27.360Z,2.30
2024-01-05T14:24:00.596Z,2.58
2024-01-05T14:26:29.568Z,2.53
2024-01-05T14:28:57.587Z,3.10
2024-01-05T14:31:32.921Z,2.17
2024-01-05T14:34:01.668Z,2.40
2024-01-05T14:36:32.433Z,2.70
2024-01-05T14:39:00.300Z,3.53
2024-01-05T14:41:29.653Z,2.97
2024-01-05T14:50:33.863Z,3.03
2024-01-05T14:53:10.191Z,2.53
2024-01-05T14:55:39.365Z,3.50
2024-01-05T14:58:10.233Z,3.75
2024-01-05T15:00:38.070Z,2.88
2024-01-05T15:03:05.849Z,3.25
2024-01-05T15:05:35.366Z,4.57
2024-01-05T15:08:05.278Z,4.80
2024-01-05T15:21:39.861Z,7.22
2024-01-05T15:24:44.914Z,7.05
2024-01-05T15:44:20.699Z,9.77
2024-01-05T15:53:21.165Z,9.50
2024-01-05T15:56:11.692Z,14.23
2024-01-05T15:58:39.526Z,13.60
2024-01-05T16:01:08.188Z,15.48
2024-01-05T16:04:08.298Z,11.82
2024-01-05T16:06:35.961Z,10.90
2024-01-05T16:09:07.302Z,11.25
2024-01-05T16:11:34.507Z,11.52
2024-01-05T16:14:02.378Z,10.18
2024-01-05T16:16:29.383Z,13.77
2024-01-05T16:18:59.516Z,11.93
2024-01-05T16:21:28.672Z,10.70
2024-01-05T16:23:56.762Z,11.98
2024-01-05T16:26:24.523Z,11.95
2024-01-05T16:28:52.237Z,10.73
2024-01-05T16:31:21.098Z,9.07
2024-01-05T16:33:49.122Z,7.38
2024-01-05T16:36:17.446Z,11.00
2024-01-05T16:38:50.403Z,10.07
2024-01-05T16:41:25.292Z,9.30
2024-01-05T16:43:53.336Z,8.90
2024-01-05T16:46:23.042Z,9.55
2024-01-05T16:48:54.271Z,9.35
2024-01-05T16:51:24.583Z,10.63
2024-01-05T16:53:52.310Z,9.57
2024-01-05T16:56:26.247Z,10.32
2024-01-05T16:58:58.868Z,8.25
2024-01-05T17:01:26.390Z,9.77
2024-01-05T17:04:18.756Z,10.90
2024-01-05T17:06:50.713Z,10.80
2024-01-05T17:09:18.116Z,13.75
2024-01-05T17:11:45.053Z,15.52
2024-01-05T17:14:12.447Z,18.02
2024-01-05T17:16:39.450Z,13.23
2024-01-05T17:19:09.883Z,14.80
2024-01-05T17:21:40.373Z,13.02
2024-01-05T17:26:50.269Z,11.10
2024-01-05T17:29:18.389Z,10.18
2024-01-05T17:37:38.618Z,12.82
2024-01-05T17:40:06.322Z,13.60
2024-01-05T17:42:39.237Z,12.30
2024-01-05T17:45:08.194Z,12.40
2024-01-05T17:47:40.472Z,12.80
2024-01-05T17:50:10.256Z,11.55
2024-01-05T17:52:37.246Z,11.52
2024-01-05T17:55:04.775Z,11.52
2024-01-05T17:57:32.037Z,12.43
2024-01-05T18:02:41.678Z,12.60
2024-01-05T18:32:47.140Z,13.05
2024-01-05T18:35:21.243Z,12.98
2024-01-05T18:37:59.134Z,12.45
2024-01-05T18:49:10.873Z,12.80
2024-01-05T18:51:44.099Z,12.05
2024-01-05T19:08:48.406Z,9.35
2024-01-05T19:11:26.242Z,11.68
2024-01-05T19:13:55.582Z,12.60
2024-01-05T19:16:24.028Z,15.40
2024-01-05T19:18:51.895Z,14.98
2024-01-05T19:21:19.793Z,15.60
2024-01-05T19:23:46.861Z,18.75
2024-01-05T19:26:18.199Z,17.58
2024-01-05T19:28:45.734Z,18.48
2024-01-05T19:31:13.599Z,18.52
2024-01-05T19:33:40.846Z,19.05
2024-01-05T19:36:10.311Z,18.02
2024-01-05T19:38:37.616Z,18.42
2024-01-05T19:41:12.973Z,17.23
2024-01-05T19:43:48.827Z,18.17
2024-01-05T19:46:17.644Z,17.95
2024-01-05T19:48:45.170Z,16.80
2024-01-05T19:51:16.519Z,13.82
2024-01-05T19:53:47.312Z,13.45
2024-01-05T19:56:17.024Z,12.82
2024-01-05T19:58:44.077Z,12.65
2024-01-05T20:01:44.207Z,13.50
2024-01-05T20:12:38.854Z,8.80
2024-01-05T20:15:08.208Z,7.10
2024-01-05T20:17:42.567Z,6.93
2024-01-05T20:20:10.550Z,6.47
2024-01-05T20:22:45.649Z,8.18
2024-01-05T20:25:15.070Z,8.60
2024-01-05T20:27:56.623Z,9.13
2024-01-05T20:30:24.405Z,10.02
2024-01-05T20:32:54.802Z,9.20
2024-01-05T20:35:25.866Z,9.05
2024-01-05T20:37:53.913Z,10.88
2024-01-05T20:40:23.821Z,11.68
2024-01-05T20:42:53.838Z,10.95
2024-01-05T20:48:01.086Z,9.38
2024-01-05T20:50:33.402Z,13.93
2024-01-05T20:57:01.453Z,12.27
2024-01-05T20:59:28.666Z,11.45
2024-01-05T21:01:58.900Z,11.70
2024-01-05T21:04:26.591Z,12.68
2024-01-05T21:06:54.153Z,12.27
2024-01-05T21:09:21.788Z,13.57
2024-01-05T21:11:51.873Z,12.10
2024-01-05T21:14:25.305Z,11.90
2024-01-05T21:16:55.759Z,10.85
2024-01-05T21:19:23.165Z,11.88
2024-01-05T21:21:50.808Z,12.07
2024-01-05T21:24:20.818Z,12.70
2024-01-05T21:26:47.806Z,15.00
2024-01-05T21:29:18.862Z,10.65
2024-01-05T21:31:49.687Z,9.90
2024-01-05T21:34:20.790Z,9.90
2024-01-05T21:36:48.413Z,9.50
2024-01-05T21:39:18.720Z,9.73
2024-01-05T21:41:57.349Z,8.52
2024-01-05T21:44:37.017Z,9.05
2024-01-05T21:47:04.301Z,10.75
2024-01-05T21:49:40.806Z,9.68
2024-01-05T21:52:07.951Z,11.05
2024-01-05T21:54:36.349Z,11.32
2024-01-05T21:57:04.352Z,12.32
2024-01-05T21:59:47.046Z,11.90
2024-01-05T22:02:18.864Z,11.38
2024-01-05T22:04:46.569Z,13.38
2024-01-05T22:07:17.859Z,12.88
2024-01-05T22:09:45.547Z,12.60
2024-01-05T22:12:13.493Z,12.80
2024-01-05T22:14:40.560Z,12.98
2024-01-05T22:17:08.305Z,12.23
2024-01-05T22:19:36.665Z,11.90
2024-01-05T22:22:04.499Z,12.25
2024-01-05T22:24:31.823Z,11.77
2024-01-05T22:27:06.673Z,11.55
2024-01-05T22:29:35.786Z,11.75
2024-01-05T22:32:03.415Z,11.90
2024-01-05T22:34:33.308Z,11.73
2024-01-05T22:37:01.441Z,12.07
2024-01-05T22:39:28.444Z,9.38
2024-01-05T22:41:56.458Z,9.77
2024-01-05T22:44:23.727Z,9.38
2024-01-05T22:46:52.696Z,9.10
2024-01-05T22:49:20.069Z,9.20
2024-01-05T22:51:49.404Z,10.50
2024-01-05T22:54:16.592Z,12.00
2024-01-05T22:56:47.496Z,13.38
2024-01-05T22:59:14.527Z,10.07
2024-01-05T23:01:42.182Z,14.35
2024-01-05T23:04:10.490Z,14.18
2024-01-05T23:06:38.045Z,16.73
2024-01-05T23:09:05.312Z,14.45
2024-01-05T23:11:33.356Z,14.20
2024-01-05T23:14:00.557Z,12.48
2024-01-05T23:16:28.327Z,13.52
2024-01-05T23:18:55.521Z,12.68
2024-01-05T23:21:22.932Z,13.40
2024-01-05T23:23:49.993Z,14.30
2024-01-05T23:26:20.080Z,12.40
2024-01-05T23:28:47.530Z,11.18
2024-01-05T23:31:15.072Z,11.52
2024-01-05T23:33:42.310Z,12.43
2024-01-05T23:36:10.014Z,12.30
2024-01-05T23:38:37.132Z,11.38
2024-01-05T23:41:04.475Z,11.07
2024-01-05T23:43:31.426Z,11.60
2024-01-05T23:45:58.877Z,12.70
2024-01-05T23:48:25.875Z,11.52
2024-01-05T23:50:53.235Z,11.70
2024-01-05T23:53:20.270Z,11.48
2024-01-05T23:55:48.698Z,10.00
